createdAt,value
2023-04-29T00:01:23.048Z,13.52
2023-04-29T00:03:51.175Z,13.42
2023-04-29T00:06:19.349Z,13.16
2023-04-29T00:08:47.263Z,13.24
2023-04-29T00:11:15.188Z,13.42
2023-04-29T00:13:44.460Z,13.43
2023-04-29T00:16:12.388Z,13.11
2023-04-29T00:18:40.316Z,13.09
2023-04-29T00:21:08.145Z,13.12
2023-04-29T00:23:36.168Z,12.96
2023-04-29T00:26:04.262Z,13.11
2023-04-29T00:28:32.189Z,12.93
2023-04-29T00:31:01.691Z,13.12
2023-04-29T00:33:30.037Z,12.73
2023-04-29T00:35:58.014Z,12.82
2023-04-29T00:38:26.060Z,12.59
2023-04-29T00:40:54.621Z,12.49
2023-04-29T00:43:22.471Z,12.82
2023-04-29T00:45:50.913Z,12.95
2023-04-29T00:48:20.355Z,12.81
2023-04-29T00:50:48.302Z,12.81
2023-04-29T00:53:16.356Z,12.81
2023-04-29T00:55:45.784Z,12.71
2023-04-29T00:58:13.917Z,12.70
2023-04-29T01:00:44.101Z,12.86
2023-04-29T01:03:12.261Z,12.64
2023-04-29T01:05:41.861Z,12.85
2023-04-29T01:08:30.167Z,12.68
2023-04-29T01:11:06.299Z,12.53
2023-04-29T01:13:39.183Z,12.75
2023-04-29T01:16:12.393Z,12.68
2023-04-29T01:18:45.584Z,12.30
2023-04-29T01:21:19.169Z,12.42
2023-04-29T01:23:53.717Z,12.64
2023-04-29T01:26:21.973Z,12.37
2023-04-29T01:29:34.473Z,12.78
2023-04-29T01:32:09.028Z,12.78
2023-04-29T01:34:50.451Z,12.77
2023-04-29T01:37:23.846Z,12.61
2023-04-29T01:40:06.650Z,11.98
2023-04-29T01:42:45.428Z,12.28
2023-04-29T01:45:17.519Z,12.62
2023-04-29T01:47:48.368Z,11.98
2023-04-29T01:50:17.189Z,12.12
2023-04-29T01:52:45.242Z,12.22
2023-04-29T01:55:14.675Z,12.34
2023-04-29T01:58:08.822Z,12.33
2023-04-29T02:00:55.486Z,12.37
2023-04-29T02:03:23.553Z,12.18
2023-04-29T02:05:55.442Z,12.29
2023-04-29T02:08:24.316Z,12.19
2023-04-29T02:10:55.867Z,11.84
2023-04-29T02:13:32.938Z,12.17
2023-04-29T02:16:09.519Z,12.24
2023-04-29T02:18:40.127Z,11.91
2023-04-29T02:21:08.666Z,11.59
2023-04-29T02:23:37.581Z,12.11
2023-04-29T02:26:07.463Z,11.90
2023-04-29T02:28:35.593Z,11.89
2023-04-29T02:31:05.162Z,11.80
2023-04-29T02:33:33.670Z,11.68
2023-04-29T02:36:01.643Z,11.50
2023-04-29T02:38:29.588Z,11.44
2023-04-29T02:40:57.674Z,11.33
2023-04-29T02:43:30.863Z,11.30
2023-04-29T02:46:00.279Z,11.35
2023-04-29T02:48:28.329Z,11.84
2023-04-29T02:50:56.335Z,11.55
2023-04-29T02:53:24.337Z,11.68
2023-04-29T02:55:52.408Z,11.76
2023-04-29T02:58:20.356Z,11.72
2023-04-29T03:00:49.681Z,11.72
2023-04-29T03:03:17.715Z,11.72
2023-04-29T03:05:45.818Z,12.01
2023-04-29T03:08:13.793Z,11.71
2023-04-29T03:10:42.916Z,11.63
2023-04-29T03:13:10.982Z,11.87
2023-04-29T03:15:39.520Z,11.65
2023-04-29T03:18:09.773Z,11.51
2023-04-29T03:20:37.929Z,11.41
2023-04-29T03:23:06.285Z,11.44
2023-04-29T03:25:34.154Z,11.32
2023-04-29T03:28:02.153Z,11.64
2023-04-29T03:30:32.177Z,11.17
2023-04-29T03:33:00.662Z,11.52
2023-04-29T03:35:31.776Z,11.72
2023-04-29T03:38:18.437Z,11.24
2023-04-29T03:40:47.134Z,11.43
2023-04-29T03:43:16.775Z,11.71
2023-04-29T03:45:44.926Z,11.73
2023-04-29T03:48:15.085Z,11.87
2023-04-29T03:50:44.659Z,11.65
2023-04-29T03:53:13.074Z,11.28
2023-04-29T03:55:40.941Z,11.34
2023-04-29T03:58:10.153Z,11.77
2023-04-29T04:00:38.202Z,11.18
2023-04-29T04:03:11.235Z,11.06
2023-04-29T04:05:39.731Z,11.18
2023-04-29T04:08:12.289Z,11.28
2023-04-29T04:11:02.758Z,11.18
2023-04-29T04:13:35.837Z,11.39
2023-04-29T04:16:04.759Z,11.54
2023-04-29T04:18:32.948Z,11.06
2023-04-29T04:21:06.894Z,11.19
2023-04-29T04:23:38.103Z,11.32
2023-04-29T04:26:06.142Z,10.98
2023-04-29T04:29:00.320Z,11.49
2023-04-29T04:31:40.334Z,11.22
2023-04-29T04:34:09.367Z,11.08
2023-04-29T04:36:37.791Z,11.43
2023-04-29T04:39:07.126Z,11.33
2023-04-29T04:41:35.636Z,11.37
2023-04-29T04:44:04.134Z,11.24
2023-04-29T04:46:55.178Z,11.79
2023-04-29T04:49:40.128Z,11.54
2023-04-29T04:52:08.150Z,11.52
2023-04-29T04:54:38.676Z,11.62
2023-04-29T04:57:17.226Z,11.68
2023-04-29T04:59:45.939Z,11.71
2023-04-29T05:02:13.926Z,11.83
2023-04-29T05:04:41.935Z,11.77
2023-04-29T05:07:10.738Z,11.97
2023-04-29T05:10:00.044Z,11.80
2023-04-29T05:12:30.891Z,11.67
2023-04-29T05:15:00.154Z,11.40
2023-04-29T05:17:29.376Z,11.69
2023-04-29T05:19:57.347Z,11.62
2023-04-29T05:22:25.505Z,11.75
2023-04-29T05:24:54.356Z,11.93
2023-04-29T05:27:24.301Z,12.18
2023-04-29T05:29:52.522Z,11.96
2023-04-29T05:32:21.058Z,12.08
2023-04-29T05:34:49.062Z,11.96
2023-04-29T05:37:17.096Z,12.14
2023-04-29T05:40:04.244Z,12.47
2023-04-29T05:42:36.940Z,12.32
2023-04-29T05:45:05.474Z,12.34
2023-04-29T05:47:34.046Z,12.23
2023-04-29T05:50:02.419Z,12.46
2023-04-29T05:52:30.299Z,12.31
2023-04-29T05:54:58.281Z,12.40
2023-04-29T05:57:26.414Z,12.58
2023-04-29T06:00:02.213Z,12.99
2023-04-29T06:02:54.916Z,12.25
2023-04-29T06:05:27.776Z,12.28
2023-04-29T06:08:20.509Z,12.06
2023-04-29T06:10:54.166Z,12.39
2023-04-29T06:13:22.452Z,12.30
2023-04-29T06:15:51.957Z,12.68
2023-04-29T06:18:20.970Z,12.84
2023-04-29T06:20:48.974Z,12.32
2023-04-29T06:23:16.935Z,12.45
2023-04-29T06:25:44.875Z,11.39
2023-04-29T06:28:12.844Z,12.28
2023-04-29T06:30:40.974Z,12.35
2023-04-29T06:33:11.667Z,12.16
2023-04-29T06:35:41.203Z,12.15
2023-04-29T06:38:25.468Z,11.34
2023-04-29T06:41:15.809Z,11.64
2023-04-29T06:43:43.762Z,11.86
2023-04-29T06:46:47.374Z,12.02
2023-04-29T06:49:25.509Z,12.42
2023-04-29T06:51:53.418Z,12.07
2023-04-29T06:54:21.487Z,11.76
2023-04-29T06:56:51.626Z,12.29
2023-04-29T06:59:19.595Z,12.16
2023-04-29T07:01:49.578Z,12.30
2023-04-29T07:04:21.070Z,11.93
2023-04-29T07:06:51.193Z,12.04
2023-04-29T07:09:19.092Z,11.81
2023-04-29T07:11:47.023Z,11.55
2023-04-29T07:14:14.885Z,11.57
2023-04-29T07:16:43.001Z,10.84
2023-04-29T07:19:11.728Z,10.65
2023-04-29T07:21:40.700Z,10.60
2023-04-29T07:24:10.171Z,10.81
2023-04-29T07:26:38.130Z,10.98
2023-04-29T07:29:09.123Z,10.98
2023-04-29T07:31:38.374Z,11.06
2023-04-29T07:34:07.146Z,11.10
2023-04-29T07:36:35.608Z,11.34
2023-04-29T07:39:04.887Z,11.02
2023-04-29T07:41:34.568Z,11.11
2023-04-29T07:44:02.756Z,11.35
2023-04-29T07:46:35.067Z,11.25
2023-04-29T07:49:03.631Z,11.08
2023-04-29T07:51:32.211Z,10.93
2023-04-29T07:54:00.855Z,11.06
2023-04-29T07:56:29.004Z,11.02
2023-04-29T07:58:58.598Z,11.23
2023-04-29T08:01:26.906Z,11.08
2023-04-29T08:03:55.557Z,10.94
2023-04-29T08:06:25.435Z,10.71
2023-04-29T08:08:54.408Z,10.86
2023-04-29T08:11:25.480Z,11.30
2023-04-29T08:13:53.812Z,11.07
2023-04-29T08:16:26.080Z,11.16
2023-04-29T08:18:54.413Z,10.78
2023-04-29T08:21:22.499Z,11.06
2023-04-29T08:23:50.467Z,10.68
2023-04-29T08:26:18.808Z,10.99
2023-04-29T08:28:47.239Z,11.12
2023-04-29T08:31:18.555Z,11.15
2023-04-29T08:33:48.713Z,11.43
2023-04-29T08:36:17.348Z,11.18
2023-04-29T08:38:45.613Z,10.96
2023-04-29T08:41:15.431Z,11.28
2023-04-29T08:43:43.498Z,11.35
2023-04-29T08:46:12.906Z,11.27
2023-04-29T08:48:44.208Z,11.29
2023-04-29T08:51:14.642Z,11.16
2023-04-29T08:53:42.676Z,11.03
2023-04-29T08:56:15.688Z,11.44
2023-04-29T08:58:44.563Z,11.28
2023-04-29T09:01:13.033Z,11.63
2023-04-29T09:03:51.595Z,11.56
2023-04-29T09:06:22.261Z,11.81
2023-04-29T09:08:50.377Z,11.42
2023-04-29T09:11:19.450Z,11.25
2023-04-29T09:13:47.486Z,11.49
2023-04-29T09:16:16.705Z,12.25
2023-04-29T09:18:48.054Z,12.27
2023-04-29T09:21:22.935Z,12.69
2023-04-29T09:23:52.645Z,13.02
2023-04-29T09:26:21.088Z,12.78
2023-04-29T09:28:49.859Z,12.73
2023-04-29T09:31:28.937Z,12.42
2023-04-29T09:33:59.181Z,12.61
2023-04-29T09:36:40.076Z,12.65
2023-04-29T09:39:12.805Z,12.46
2023-04-29T09:41:47.141Z,12.91
2023-04-29T09:44:15.846Z,12.82
2023-04-29T09:46:46.860Z,13.08
2023-04-29T09:49:27.056Z,13.34
2023-04-29T09:51:58.048Z,13.52
2023-04-29T09:54:28.545Z,13.97
2023-04-29T09:56:57.785Z,14.70
2023-04-29T09:59:26.935Z,15.07
2023-04-29T10:01:57.505Z,15.18
2023-04-29T10:04:26.999Z,15.54
2023-04-29T10:06:57.191Z,14.66
2023-04-29T10:09:25.517Z,14.72
2023-04-29T10:11:55.020Z,14.37
2023-04-29T10:14:24.861Z,14.74
2023-04-29T10:17:00.802Z,14.85
2023-04-29T10:19:36.734Z,15.01
2023-04-29T10:22:11.085Z,15.87
2023-04-29T10:24:40.870Z,16.37
2023-04-29T10:27:09.749Z,16.81
2023-04-29T10:29:39.397Z,17.10
2023-04-29T10:32:10.711Z,16.79
2023-04-29T10:34:40.952Z,16.04
2023-04-29T10:37:12.074Z,16.17
2023-04-29T10:39:48.122Z,16.11
2023-04-29T10:42:32.204Z,15.93
2023-04-29T10:45:26.245Z,16.55
2023-04-29T10:48:16.028Z,16.48
2023-04-29T10:51:10.480Z,16.68
2023-04-29T10:54:03.372Z,16.45
2023-04-29T10:56:45.461Z,15.95
2023-04-29T10:59:44.567Z,15.83
2023-04-29T11:02:31.837Z,16.07
2023-04-29T11:05:08.903Z,15.90
2023-04-29T11:07:36.933Z,16.01
2023-04-29T11:10:05.510Z,16.96
2023-04-29T11:12:33.662Z,16.74
2023-04-29T11:15:04.851Z,16.53
2023-04-29T11:17:38.908Z,16.58
2023-04-29T11:20:11.461Z,17.84
2023-04-29T11:22:40.800Z,17.51
2023-04-29T11:25:09.738Z,17.66
2023-04-29T11:27:39.970Z,17.42
2023-04-29T11:30:09.184Z,17.39
2023-04-29T11:32:40.413Z,17.11
2023-04-29T11:35:09.658Z,16.64
2023-04-29T11:37:38.616Z,17.26
2023-04-29T11:40:07.820Z,17.35
2023-04-29T11:42:37.050Z,17.01
2023-04-29T11:45:05.729Z,17.55
2023-04-29T11:47:33.731Z,18.00
2023-04-29T11:50:08.881Z,18.38
2023-04-29T11:52:39.146Z,18.31
2023-04-29T11:55:09.807Z,17.69
2023-04-29T11:57:37.759Z,17.69
2023-04-29T12:00:08.030Z,18.10
2023-04-29T12:02:38.639Z,17.72
2023-04-29T12:05:09.425Z,17.29
2023-04-29T12:07:37.649Z,16.90
2023-04-29T12:10:09.867Z,16.58
2023-04-29T12:12:40.718Z,16.40
2023-04-29T12:15:10.676Z,16.08
2023-04-29T12:17:39.323Z,16.00
2023-04-29T12:20:11.219Z,16.59
2023-04-29T12:22:39.312Z,17.40
2023-04-29T12:25:08.519Z,16.86
2023-04-29T12:27:37.334Z,16.58
2023-04-29T12:30:09.621Z,16.71
2023-04-29T12:32:38.226Z,16.52
2023-04-29T12:35:16.439Z,16.58
2023-04-29T12:37:44.628Z,16.77
2023-04-29T12:40:16.891Z,16.51
2023-04-29T12:42:45.248Z,16.60
2023-04-29T12:45:27.852Z,15.95
2023-04-29T12:47:59.588Z,16.51
2023-04-29T12:50:34.426Z,17.08
2023-04-29T12:53:03.425Z,16.88
2023-04-29T12:55:32.628Z,16.94
2023-04-29T12:58:01.220Z,17.49
2023-04-29T13:00:29.468Z,17.51
2023-04-29T13:02:57.598Z,17.34
2023-04-29T13:05:25.744Z,17.55
2023-04-29T13:07:55.065Z,17.53
2023-04-29T13:10:23.114Z,17.36
2023-04-29T13:12:51.187Z,17.99
2023-04-29T13:15:19.173Z,17.97
2023-04-29T13:17:47.084Z,17.36
2023-04-29T13:20:15.380Z,18.32
2023-04-29T13:22:44.373Z,17.93
2023-04-29T13:25:15.051Z,18.17
2023-04-29T13:27:43.974Z,17.85
2023-04-29T13:30:12.314Z,17.96
2023-04-29T13:32:46.444Z,17.57
2023-04-29T13:35:21.727Z,17.52
2023-04-29T13:37:49.709Z,16.97
2023-04-29T13:40:21.189Z,17.78
2023-04-29T13:42:50.842Z,18.05
2023-04-29T13:45:24.717Z,18.27
2023-04-29T13:48:07.268Z,17.86
2023-04-29T13:51:22.634Z,17.76
2023-04-29T13:54:01.925Z,17.85
2023-04-29T14:01:44.170Z,18.08
2023-04-29T14:04:05.851Z,17.38
2023-04-29T14:06:34.796Z,17.52
2023-04-29T14:09:04.075Z,17.84
2023-04-29T14:11:36.716Z,17.51
2023-04-29T14:14:05.428Z,17.38
2023-04-29T14:16:33.407Z,17.16
2023-04-29T14:19:03.619Z,17.28
2023-04-29T14:21:33.089Z,16.88
2023-04-29T14:24:02.508Z,16.63
2023-04-29T14:26:31.084Z,16.56
2023-04-29T14:29:01.161Z,15.96
2023-04-29T14:31:31.013Z,16.22
2023-04-29T14:33:59.673Z,16.43
2023-04-29T14:36:28.250Z,16.03
2023-04-29T14:38:56.306Z,16.10
2023-04-29T14:41:24.255Z,16.38
2023-04-29T14:43:52.600Z,16.38
2023-04-29T14:46:22.510Z,16.57
2023-04-29T14:48:50.619Z,16.51
2023-04-29T14:51:27.802Z,17.14
2023-04-29T14:53:55.825Z,17.15
2023-04-29T14:56:23.886Z,17.10
2023-04-29T14:58:51.786Z,16.95
2023-04-29T15:01:21.486Z,17.40
2023-04-29T15:03:49.668Z,17.51
2023-04-29T15:06:18.055Z,17.72
2023-04-29T15:08:46.986Z,18.06
2023-04-29T15:11:15.142Z,18.42
2023-04-29T15:13:43.037Z,18.54
2023-04-29T15:16:11.219Z,18.39
2023-04-29T15:18:43.375Z,18.13
2023-04-29T15:21:13.659Z,18.54
2023-04-29T15:23:41.628Z,18.80
2023-04-29T15:26:09.485Z,18.43
2023-04-29T15:28:38.133Z,18.83
2023-04-29T15:31:06.106Z,19.30
2023-04-29T15:33:34.381Z,18.58
2023-04-29T15:36:04.193Z,18.78
2023-04-29T15:38:32.241Z,18.87
2023-04-29T15:41:01.506Z,18.54
2023-04-29T15:43:34.905Z,17.54
2023-04-29T15:46:02.985Z,15.70
2023-04-29T15:48:30.974Z,15.55
2023-04-29T15:50:58.893Z,17.60
2023-04-29T15:53:28.171Z,17.58
2023-04-29T15:55:56.067Z,17.80
2023-04-29T15:58:24.055Z,17.26
2023-04-29T16:00:52.290Z,17.28
2023-04-29T16:03:20.231Z,17.58
2023-04-29T16:05:48.256Z,17.81
2023-04-29T16:08:16.225Z,17.47
2023-04-29T16:10:46.375Z,17.69
2023-04-29T16:13:14.357Z,17.28
2023-04-29T16:15:42.277Z,17.10
2023-04-29T16:18:10.299Z,17.46
2023-04-29T16:20:38.173Z,17.59
2023-04-29T16:23:06.664Z,17.58
2023-04-29T16:25:34.548Z,17.48
2023-04-29T16:28:03.956Z,17.41
2023-04-29T16:30:31.960Z,17.63
2023-04-29T16:32:59.869Z,17.53
2023-04-29T16:35:29.088Z,17.36
2023-04-29T16:37:57.044Z,17.44
2023-04-29T16:40:25.126Z,17.32
2023-04-29T16:42:53.511Z,17.50
2023-04-29T16:45:23.917Z,17.22
2023-04-29T16:47:52.122Z,17.25
2023-04-29T16:50:20.190Z,17.21
2023-04-29T16:52:48.607Z,17.15
2023-04-29T16:55:18.292Z,17.13
2023-04-29T16:57:46.722Z,17.09
2023-04-29T17:00:18.063Z,17.08
2023-04-29T17:02:49.114Z,17.15
2023-04-29T17:05:20.039Z,17.33
2023-04-29T17:07:48.205Z,17.30
2023-04-29T17:10:16.090Z,17.27
2023-04-29T17:12:44.393Z,17.04
2023-04-29T17:15:12.677Z,16.94
2023-04-29T17:17:40.739Z,16.99
2023-04-29T17:20:11.771Z,16.82
2023-04-29T17:22:40.077Z,16.50
2023-04-29T17:25:09.577Z,16.56
2023-04-29T17:27:37.666Z,16.67
2023-04-29T17:30:06.343Z,16.57
2023-04-29T17:32:39.088Z,16.47
2023-04-29T17:35:08.431Z,16.50
2023-04-29T17:37:37.760Z,16.50
2023-04-29T17:40:07.056Z,16.47
2023-04-29T17:42:34.938Z,16.57
2023-04-29T17:45:02.846Z,16.14
2023-04-29T17:47:30.713Z,16.05
2023-04-29T17:50:01.766Z,16.17
2023-04-29T17:52:30.340Z,16.21
2023-04-29T17:54:59.653Z,16.10
2023-04-29T17:57:28.682Z,16.09
2023-04-29T17:59:56.905Z,15.99
2023-04-29T18:02:25.062Z,16.02
2023-04-29T18:04:53.027Z,15.98
2023-04-29T18:07:20.863Z,16.00
2023-04-29T18:09:48.737Z,16.13
2023-04-29T18:12:18.016Z,16.04
2023-04-29T18:14:48.715Z,16.08
2023-04-29T18:17:16.762Z,15.92
2023-04-29T18:19:48.274Z,15.81
2023-04-29T18:22:16.344Z,15.94
2023-04-29T18:24:44.399Z,15.93
2023-04-29T18:27:12.335Z,15.85
2023-04-29T18:29:41.560Z,15.91
2023-04-29T18:32:10.124Z,15.99
2023-04-29T18:34:38.019Z,15.91
2023-04-29T18:37:06.001Z,15.74
2023-04-29T18:39:34.124Z,16.05
2023-04-29T18:42:04.179Z,16.22
2023-04-29T18:44:32.302Z,16.17
2023-04-29T18:47:01.943Z,16.22
2023-04-29T18:49:30.419Z,16.23
2023-04-29T18:51:58.384Z,16.16
2023-04-29T18:54:26.367Z,16.18
2023-04-29T18:56:54.444Z,16.22
2023-04-29T18:59:22.424Z,15.83
2023-04-29T19:01:50.579Z,16.00
2023-04-29T19:04:20.063Z,15.85
2023-04-29T19:06:48.007Z,15.83
2023-04-29T19:09:16.058Z,15.83
2023-04-29T19:11:43.939Z,15.47
2023-04-29T19:14:11.827Z,14.99
2023-04-29T19:16:41.917Z,14.79
2023-04-29T19:19:09.985Z,14.65
2023-04-29T19:21:39.476Z,14.53
2023-04-29T19:24:07.375Z,14.47
2023-04-29T19:26:36.485Z,14.22
2023-04-29T19:29:05.916Z,14.02
2023-04-29T19:31:34.193Z,14.01
2023-04-29T19:34:02.206Z,13.71
2023-04-29T19:36:30.229Z,13.47
2023-04-29T19:38:59.713Z,13.48
2023-04-29T19:41:27.732Z,13.55
2023-04-29T19:43:55.606Z,13.60
2023-04-29T19:46:23.462Z,13.73
2023-04-29T19:48:51.356Z,13.81
2023-04-29T19:51:19.535Z,13.65
2023-04-29T19:53:47.564Z,13.49
2023-04-29T19:56:16.974Z,13.51
2023-04-29T19:58:45.608Z,13.35
2023-04-29T20:01:13.571Z,13.49
2023-04-29T20:03:41.727Z,13.47
2023-04-29T20:06:10.250Z,13.38
2023-04-29T20:08:38.365Z,13.22
2023-04-29T20:11:06.285Z,13.21
2023-04-29T20:13:35.912Z,13.13
2023-04-29T20:16:03.784Z,12.72
2023-04-29T20:18:31.775Z,12.70
2023-04-29T20:20:59.974Z,12.73
2023-04-29T20:23:27.864Z,12.85
2023-04-29T20:25:56.146Z,12.70
2023-04-29T20:28:24.033Z,12.58
2023-04-29T20:30:53.269Z,12.50
2023-04-29T20:33:21.207Z,12.88
2023-04-29T20:35:49.111Z,12.67
2023-04-29T20:38:17.019Z,12.76
2023-04-29T20:40:45.161Z,12.77
2023-04-29T20:43:13.117Z,13.14
2023-04-29T20:45:41.073Z,13.27
2023-04-29T20:48:10.366Z,13.11
2023-04-29T20:50:38.280Z,13.01
2023-04-29T20:53:07.108Z,13.05
2023-04-29T20:55:34.954Z,12.93
2023-04-29T20:58:02.877Z,12.70
2023-04-29T21:00:30.784Z,12.59
2023-04-29T21:02:58.867Z,12.70
2023-04-29T21:05:28.363Z,12.65
2023-04-29T21:07:56.290Z,12.58
2023-04-29T21:10:24.404Z,12.54
2023-04-29T21:12:52.290Z,12.47
2023-04-29T21:15:20.789Z,12.50
2023-04-29T21:17:48.694Z,12.41
2023-04-29T21:20:17.167Z,12.31
2023-04-29T21:22:46.429Z,12.07
2023-04-29T21:25:14.296Z,12.19
2023-04-29T21:27:42.130Z,12.16
2023-04-29T21:30:10.818Z,12.16
2023-04-29T21:32:38.684Z,11.71
2023-04-29T21:35:07.724Z,11.89
2023-04-29T21:37:35.719Z,11.87
2023-04-29T21:40:05.536Z,11.87
2023-04-29T21:42:34.766Z,11.83
2023-04-29T21:45:03.215Z,11.78
2023-04-29T21:47:31.810Z,11.58
2023-04-29T21:50:00.504Z,11.57
2023-04-29T21:52:28.857Z,11.41
2023-04-29T21:54:56.817Z,11.33
2023-04-29T21:57:36.091Z,11.27
2023-04-29T22:00:21.637Z,11.31
2023-04-29T22:02:49.626Z,11.34
2023-04-29T22:05:17.702Z,11.17
2023-04-29T22:07:46.050Z,11.24
2023-04-29T22:10:14.034Z,11.14
2023-04-29T22:12:43.338Z,11.28
2023-04-29T22:15:24.724Z,11.32
2023-04-29T22:17:56.881Z,11.32
2023-04-29T22:20:24.964Z,11.23
2023-04-29T22:22:52.961Z,11.13
2023-04-29T22:25:21.881Z,10.99
2023-04-29T22:27:51.883Z,10.75
2023-04-29T22:30:20.826Z,10.53
2023-04-29T22:32:48.882Z,10.40
2023-04-29T22:35:17.106Z,10.44
2023-04-29T22:37:44.959Z,10.44
2023-04-29T22:40:14.196Z,10.54
2023-04-29T22:42:42.869Z,10.77
2023-04-29T22:45:13.111Z,10.65
2023-04-29T22:47:41.066Z,10.57
2023-04-29T22:50:10.132Z,10.22
2023-04-29T22:52:38.059Z,10.33
2023-04-29T22:55:07.038Z,10.22
2023-04-29T22:57:35.056Z,10.30
2023-04-29T23:00:03.584Z,10.23
2023-04-29T23:02:33.018Z,10.18
2023-04-29T23:05:01.088Z,10.15
2023-04-29T23:07:29.006Z,10.06
2023-04-29T23:09:57.034Z,9.73
2023-04-29T23:12:25.408Z,9.82
2023-04-29T23:14:53.582Z,10.05
2023-04-29T23:17:21.501Z,9.94
2023-04-29T23:19:50.733Z,9.87
2023-04-29T23:22:18.654Z,9.94
2023-04-29T23:24:46.604Z,9.52
2023-04-29T23:27:14.460Z,9.78
2023-04-29T23:29:42.349Z,10.08
2023-04-29T23:32:10.307Z,9.87
2023-04-29T23:34:38.221Z,9.96
2023-04-29T23:37:07.502Z,9.76
2023-04-29T23:39:35.757Z,9.87
2023-04-29T23:42:03.955Z,9.90
2023-04-29T23:44:33.803Z,9.83
2023-04-29T23:47:01.801Z,9.60
2023-04-29T23:49:29.786Z,9.55
2023-04-29T23:51:57.757Z,9.53
2023-04-29T23:54:27.019Z,9.36
2023-04-29T23:56:57.817Z,9.00
2023-04-29T23:59:25.772Z,8.74
